Time;durP1;ratioP1;P1;durP2;ratioP2;P2;SDS_P1;SDS_P2;PMS_P1;PMS_P2;Temp;Humidity;BMP_temperature;BMP_pressure;BME280_temperature;BME280_humidity;BME280_pressure;Samples;Min_cycle;Max_cycle;Signal;HPM_P1;HPM_P2
2021/12/25 05:03:43;;;;;;;358.60;30.47;;;9.20;99.90;;;;;;4977935;28;20419;-71
2021/12/25 05:06:10;;;;;;;411.20;32.60;;;9.10;99.90;;;;;;4977323;28;20451;-70
2021/12/25 05:08:37;;;;;;;260.30;28.10;;;9.10;99.90;;;;;;4977249;28;20486;-70
2021/12/25 05:11:04;;;;;;;331.40;33.73;;;9.10;99.90;;;;;;4977518;28;20471;-70
2021/12/25 05:13:32;;;;;;;425.67;34.97;;;9.00;99.90;;;;;;4977905;28;20952;-70
2021/12/25 05:16:02;;;;;;;420.93;34.40;;;9.00;99.90;;;;;;4977481;28;20891;-71
2021/12/25 05:18:29;;;;;;;416.73;37.17;;;8.90;99.90;;;;;;4977840;28;20479;-71
2021/12/25 05:20:56;;;;;;;295.33;30.60;;;8.90;99.90;;;;;;4977183;28;20477;-71
2021/12/25 05:23:22;;;;;;;133.53;28.87;;;8.80;99.90;;;;;;4977337;28;20959;-70
2021/12/25 05:25:50;;;;;;;301.47;37.47;;;8.90;99.90;;;;;;4977477;28;20460;-71
2021/12/25 05:28:23;;;;;;;145.50;30.43;;;8.90;99.90;;;;;;4977387;28;20488;-70
2021/12/25 05:30:50;;;;;;;168.77;30.30;;;8.90;99.90;;;;;;4977668;28;20476;-70
2021/12/25 05:33:19;;;;;;;89.53;28.93;;;8.90;99.90;;;;;;4977706;28;20465;-71
2021/12/25 05:35:47;;;;;;;96.30;28.83;;;8.90;99.90;;;;;;4977563;28;20970;-70
2021/12/25 05:38:15;;;;;;;79.97;29.00;;;9.00;99.90;;;;;;4977545;28;20479;-70
2021/12/25 05:40:42;;;;;;;61.43;28.07;;;8.90;99.90;;;;;;4977548;28;20572;-70
2021/12/25 05:43:09;;;;;;;47.17;24.37;;;9.00;99.90;;;;;;4976718;28;20951;-70
2021/12/25 05:45:35;;;;;;;41.20;24.23;;;9.00;99.90;;;;;;4977625;28;20459;-71
2021/12/25 05:48:03;;;;;;;38.57;23.70;;;9.00;99.90;;;;;;4977156;28;20451;-72
2021/12/25 05:50:31;;;;;;;47.20;24.20;;;9.10;99.90;;;;;;4979033;28;20480;-70
2021/12/25 05:52:58;;;;;;;42.00;23.90;;;9.10;99.90;;;;;;4976866;28;20462;-70
2021/12/25 05:55:25;;;;;;;42.27;24.40;;;9.10;99.90;;;;;;4977513;28;20461;-71
2021/12/25 05:57:52;;;;;;;35.80;22.90;;;9.20;99.90;;;;;;4977329;28;20912;-70
2021/12/25 06:00:21;;;;;;;29.83;20.40;;;9.20;99.90;;;;;;4977379;28;20462;-70
2021/12/25 06:02:48;;;;;;;36.00;22.77;;;9.20;99.90;;;;;;4977480;28;20834;-71
2021/12/25 06:05:15;;;;;;;42.00;24.23;;;9.10;99.90;;;;;;4976926;28;20471;-71
2021/12/25 06:07:43;;;;;;;35.17;22.67;;;9.10;99.90;;;;;;4977620;28;20459;-71
2021/12/25 06:10:11;;;;;;;32.27;20.77;;;9.10;99.90;;;;;;4977670;28;20451;-70
2021/12/25 06:12:38;;;;;;;27.53;19.80;;;9.10;99.90;;;;;;4983622;28;20451;-71
2021/12/25 06:15:06;;;;;;;24.23;18.90;;;9.10;99.90;;;;;;4983935;28;20464;-71
2021/12/25 06:17:33;;;;;;;23.33;17.63;;;9.00;99.90;;;;;;4977434;28;20553;-71
2021/12/25 06:20:00;;;;;;;22.17;18.00;;;9.10;99.90;;;;;;4977433;28;20479;-71
2021/12/25 06:22:26;;;;;;;29.60;18.10;;;9.00;99.90;;;;;;4977171;28;20483;-71
2021/12/25 06:24:54;;;;;;;23.57;16.63;;;9.10;99.90;;;;;;4976937;28;20464;-71
2021/12/25 06:27:22;;;;;;;20.73;15.90;;;9.10;99.90;;;;;;4978123;28;20452;-70
2021/12/25 06:29:50;;;;;;;19.10;14.87;;;9.10;99.90;;;;;;4980602;28;20460;-70
2021/12/25 06:32:18;;;;;;;23.53;16.33;;;9.20;99.90;;;;;;4980369;28;20475;-71
2021/12/25 06:34:45;;;;;;;22.60;16.07;;;9.20;99.90;;;;;;4985348;28;20466;-71
2021/12/25 06:37:13;;;;;;;21.40;16.17;;;9.20;99.90;;;;;;4985456;28;20792;-71
2021/12/25 06:39:41;;;;;;;18.70;14.63;;;9.10;99.90;;;;;;4983072;28;20458;-71
2021/12/25 06:42:10;;;;;;;27.07;15.50;;;9.20;99.90;;;;;;4983381;28;20484;-71
2021/12/25 06:44:37;;;;;;;26.00;15.53;;;9.20;99.90;;;;;;4982812;28;20452;-71
2021/12/25 06:47:04;;;;;;;22.97;15.40;;;9.30;99.90;;;;;;4982487;28;20466;-71
2021/12/25 06:49:31;;;;;;;19.80;15.10;;;9.30;99.90;;;;;;4984238;28;20457;-71
2021/12/25 06:51:58;;;;;;;25.20;16.70;;;9.30;99.90;;;;;;4983550;28;20476;-72
2021/12/25 06:54:25;;;;;;;19.60;14.90;;;9.40;99.90;;;;;;4983357;28;20465;-71
2021/12/25 06:56:52;;;;;;;15.30;13.67;;;9.40;99.90;;;;;;4983542;28;20979;-71
2021/12/25 06:59:21;;;;;;;17.57;13.90;;;9.40;99.90;;;;;;4983428;28;20486;-72
2021/12/25 07:01:49;;;;;;;18.70;12.60;;;9.40;99.90;;;;;;4981924;28;20537;-70
2021/12/25 07:04:16;;;;;;;20.73;13.50;;;9.40;99.90;;;;;;4981624;28;20443;-71
2021/12/25 07:06:43;;;;;;;15.43;13.13;;;9.50;99.90;;;;;;4981312;28;20458;-71
2021/12/25 07:09:10;;;;;;;17.57;12.47;;;9.50;99.90;;;;;;4985399;28;20453;-72
2021/12/25 07:11:37;;;;;;;19.83;13.57;;;9.50;99.90;;;;;;4983072;28;20479;-72
2021/12/25 07:14:08;;;;;;;13.23;11.70;;;9.50;99.90;;;;;;4981621;28;20461;-71
2021/12/25 07:16:36;;;;;;;17.37;13.37;;;9.50;99.90;;;;;;4980531;28;20514;-71
2021/12/25 07:19:03;;;;;;;14.57;11.47;;;9.50;99.90;;;;;;4980607;28;20491;-72
2021/12/25 07:21:30;;;;;;;18.80;9.43;;;9.40;99.90;;;;;;4980657;28;20473;-72
2021/12/25 07:23:57;;;;;;;11.17;9.30;;;9.50;99.90;;;;;;4979961;28;20823;-71
2021/12/25 07:26:23;;;;;;;12.53;9.47;;;9.40;99.90;;;;;;4980433;28;20451;-71
2021/12/25 07:28:51;;;;;;;14.37;9.20;;;9.30;99.90;;;;;;4980804;28;20451;-71
2021/12/25 07:31:20;;;;;;;12.30;9.70;;;9.30;99.90;;;;;;4980466;28;20496;-71
2021/12/25 07:33:48;;;;;;;11.40;9.07;;;9.30;99.90;;;;;;4980131;28;20494;-71
2021/12/25 07:36:15;;;;;;;12.33;10.37;;;9.30;99.90;;;;;;4980262;28;20465;-71
2021/12/25 07:38:42;;;;;;;18.87;9.67;;;9.30;99.90;;;;;;4978138;28;20486;-71
2021/12/25 07:41:09;;;;;;;10.27;8.43;;;9.30;99.90;;;;;;4978884;28;20475;-71
2021/12/25 07:43:36;;;;;;;10.80;9.10;;;9.30;99.90;;;;;;4980720;28;20476;-71
2021/12/25 07:46:03;;;;;;;11.50;8.90;;;9.30;99.90;;;;;;4983057;28;20466;-71
2021/12/25 07:48:32;;;;;;;11.30;8.37;;;9.30;99.90;;;;;;4978714;28;20954;-71
2021/12/25 07:51:02;;;;;;;11.43;8.80;;;9.40;99.90;;;;;;4978012;28;20516;-73
2021/12/25 07:53:30;;;;;;;10.63;8.30;;;9.40;99.90;;;;;;4977660;28;20449;-72
2021/12/25 07:55:57;;;;;;;10.80;8.80;;;9.40;99.90;;;;;;4979245;28;20465;-72
2021/12/25 07:58:24;;;;;;;12.00;8.83;;;9.40;99.90;;;;;;4977894;28;20475;-72
2021/12/25 08:00:51;;;;;;;10.47;7.70;;;9.40;99.90;;;;;;4977329;28;20494;-72
2021/12/25 08:03:18;;;;;;;10.73;7.70;;;9.50;99.90;;;;;;4977863;28;20462;-71
2021/12/25 08:05:47;;;;;;;9.70;7.30;;;9.50;99.90;;;;;;4978050;28;20456;-71
2021/12/25 08:08:24;;;;;;;9.20;7.47;;;9.60;99.90;;;;;;4977742;28;20451;-71
2021/12/25 08:10:51;;;;;;;8.83;7.53;;;9.60;99.90;;;;;;4977680;28;20480;-72
2021/12/25 08:13:18;;;;;;;9.23;7.60;;;9.60;99.90;;;;;;4978183;28;20482;-71
2021/12/25 08:15:45;;;;;;;14.17;7.63;;;9.60;99.90;;;;;;4978012;28;20469;-71
2021/12/25 08:18:12;;;;;;;7.90;7.10;;;9.60;99.90;;;;;;4977558;28;20484;-71
2021/12/25 08:20:38;;;;;;;9.83;7.50;;;9.60;99.90;;;;;;4977736;28;20490;-72
2021/12/25 08:23:05;;;;;;;9.10;7.37;;;9.60;99.90;;;;;;4978408;28;20453;-73
2021/12/25 08:25:34;;;;;;;8.13;7.27;;;9.60;99.90;;;;;;4977623;28;20494;-72
2021/12/25 08:28:01;;;;;;;8.33;6.83;;;9.60;99.90;;;;;;4977624;28;20824;-72
2021/12/25 08:30:28;;;;;;;8.43;7.40;;;9.60;99.90;;;;;;4977602;28;20966;-74
2021/12/25 08:32:57;;;;;;;9.83;7.90;;;9.60;99.90;;;;;;4977158;28;20467;-74
2021/12/25 08:35:25;;;;;;;7.90;7.10;;;9.50;99.90;;;;;;4977735;28;20452;-74
2021/12/25 08:37:53;;;;;;;8.83;8.00;;;9.60;99.90;;;;;;4977447;28;20462;-73
2021/12/25 08:40:20;;;;;;;8.17;6.53;;;9.70;99.90;;;;;;4977178;28;20823;-74
2021/12/25 08:42:53;;;;;;;11.03;7.53;;;9.70;99.90;;;;;;4977401;28;20464;-73
2021/12/25 08:45:41;;;;;;;7.60;5.87;;;9.80;99.90;;;;;;4977153;28;20924;-73
2021/12/25 08:48:12;;;;;;;7.60;5.90;;;9.80;99.90;;;;;;4977478;28;20776;-73
2021/12/25 08:50:40;;;;;;;6.93;6.10;;;9.90;99.90;;;;;;4976600;28;20512;-73
2021/12/25 08:53:06;;;;;;;9.73;6.40;;;9.90;99.90;;;;;;4977980;28;20459;-73
2021/12/25 08:55:33;;;;;;;6.43;5.73;;;9.90;99.90;;;;;;4978404;28;20459;-70
2021/12/25 08:58:03;;;;;;;9.10;6.10;;;9.90;99.90;;;;;;4977653;28;20492;-70
2021/12/25 09:00:30;;;;;;;6.10;5.50;;;10.00;99.90;;;;;;4977209;28;20451;-71
2021/12/25 09:02:57;;;;;;;6.47;5.80;;;10.00;99.90;;;;;;4977571;28;20448;-70
2021/12/25 09:05:24;;;;;;;5.53;5.07;;;10.00;99.90;;;;;;4977688;28;20464;-71
2021/12/25 09:07:51;;;;;;;5.40;4.97;;;10.10;99.90;;;;;;4978072;28;20508;-70
2021/12/25 09:10:18;;;;;;;7.93;5.40;;;10.10;99.90;;;;;;4978055;28;20559;-71
2021/12/25 09:12:45;;;;;;;5.50;4.73;;;10.10;99.90;;;;;;4978281;28;20456;-70
2021/12/25 09:15:14;;;;;;;5.47;4.90;;;10.10;99.90;;;;;;4986885;28;20554;-70
2021/12/25 09:17:42;;;;;;;10.37;5.10;;;10.20;99.90;;;;;;4980934;28;20464;-69
2021/12/25 09:20:10;;;;;;;6.83;5.20;;;10.20;99.90;;;;;;4977872;28;20484;-72
2021/12/25 09:22:37;;;;;;;6.37;5.50;;;10.20;99.90;;;;;;4977872;28;20464;-73
2021/12/25 09:25:05;;;;;;;6.97;5.20;;;10.20;99.90;;;;;;4978226;28;20463;-72
2021/12/25 09:27:32;;;;;;;5.80;4.90;;;10.20;99.90;;;;;;4977922;28;20459;-71
2021/12/25 09:29:58;;;;;;;6.40;4.50;;;10.30;99.90;;;;;;4977911;28;20509;-70
2021/12/25 09:32:27;;;;;;;4.77;4.30;;;10.30;99.90;;;;;;4977444;28;21014;-73
2021/12/25 09:34:54;;;;;;;5.93;5.27;;;10.30;99.90;;;;;;4977756;28;20949;-71
2021/12/25 09:37:20;;;;;;;5.50;4.60;;;10.30;99.90;;;;;;4977372;28;20463;-71
2021/12/25 09:39:47;;;;;;;5.53;4.90;;;10.30;99.90;;;;;;4977461;28;20474;-72
2021/12/25 09:42:14;;;;;;;5.80;5.20;;;10.30;99.90;;;;;;4977535;28;20481;-71
2021/12/25 09:44:41;;;;;;;5.30;4.80;;;10.30;99.90;;;;;;4977609;28;20460;-72
2021/12/25 09:47:07;;;;;;;4.77;4.37;;;10.30;99.90;;;;;;4977669;28;20473;-73
2021/12/25 09:49:36;;;;;;;5.03;4.60;;;10.40;99.90;;;;;;4978232;28;20786;-73
2021/12/25 09:52:03;;;;;;;6.83;5.57;;;10.40;99.90;;;;;;4979108;28;20487;-71
2021/12/25 09:54:30;;;;;;;5.80;5.30;;;10.40;99.90;;;;;;4980773;28;20457;-72
2021/12/25 09:56:58;;;;;;;8.33;5.20;;;10.40;99.90;;;;;;4980201;28;20976;-72
2021/12/25 09:59:26;;;;;;;5.70;4.60;;;10.40;99.90;;;;;;4980276;28;20996;-72
2021/12/25 10:01:55;;;;;;;6.07;5.00;;;10.40;99.90;;;;;;4982566;28;20495;-72
2021/12/25 10:04:35;;;;;;;5.23;4.40;;;10.40;99.90;;;;;;4984732;28;20478;-72
2021/12/25 10:07:32;;;;;;;5.67;5.17;;;10.30;99.90;;;;;;4985757;28;20445;-71
2021/12/25 10:10:04;;;;;;;5.10;4.70;;;10.30;99.90;;;;;;4986726;28;20446;-73
2021/12/25 10:12:36;;;;;;;6.53;5.93;;;10.40;99.90;;;;;;4985766;28;20473;-72
2021/12/25 10:15:05;;;;;;;5.97;5.40;;;10.40;99.90;;;;;;4985377;28;20460;-72
2021/12/25 10:17:32;;;;;;;7.07;4.80;;;10.40;99.90;;;;;;4984547;28;20476;-72
2021/12/25 10:20:18;;;;;;;5.97;5.37;;;10.50;99.90;;;;;;4983268;28;20477;-71
2021/12/25 10:23:04;;;;;;;6.20;5.07;;;10.50;99.90;;;;;;4982739;28;20510;-72
2021/12/25 10:25:38;;;;;;;4.17;3.77;;;10.50;99.90;;;;;;4984765;28;20468;-72
2021/12/25 10:28:09;;;;;;;5.70;3.97;;;10.50;99.90;;;;;;4986664;28;20450;-72
2021/12/25 10:30:54;;;;;;;4.50;2.80;;;10.50;99.90;;;;;;4984293;28;20873;-71
2021/12/25 10:33:26;;;;;;;3.47;2.33;;;10.50;99.90;;;;;;4981599;28;20491;-70
2021/12/25 10:35:53;;;;;;;2.30;2.10;;;10.80;99.90;;;;;;4981945;28;20458;-70
2021/12/25 10:38:24;;;;;;;2.20;2.00;;;11.00;99.90;;;;;;4981580;28;20457;-70
2021/12/25 10:40:51;;;;;;;2.47;2.37;;;11.30;99.90;;;;;;4981103;28;20474;-71
2021/12/25 10:43:23;;;;;;;2.20;2.10;;;11.50;99.90;;;;;;4982919;28;20448;-72
2021/12/25 10:46:00;;;;;;;2.07;1.90;;;11.50;99.90;;;;;;4984632;28;20458;-73
2021/12/25 10:48:28;;;;;;;2.60;2.50;;;11.40;99.90;;;;;;4981727;28;20457;-72
2021/12/25 10:50:55;;;;;;;2.80;2.33;;;11.20;99.90;;;;;;4980661;28;20485;-72
2021/12/25 10:53:26;;;;;;;3.13;2.27;;;11.20;99.90;;;;;;4979585;28;20454;-72
2021/12/25 10:55:54;;;;;;;2.73;2.53;;;11.10;99.90;;;;;;4979980;28;20550;-72
2021/12/25 10:58:23;;;;;;;3.00;2.77;;;11.00;99.90;;;;;;4979798;28;20503;-69
2021/12/25 11:00:53;;;;;;;2.57;2.47;;;11.00;99.90;;;;;;4979087;28;20493;-70
2021/12/25 11:03:27;;;;;;;4.70;2.60;;;11.10;99.90;;;;;;4979664;28;20515;-70
2021/12/25 11:05:54;;;;;;;2.83;2.63;;;11.30;99.90;;;;;;4979392;28;20943;-69
2021/12/25 11:08:22;;;;;;;2.93;2.73;;;11.50;99.90;;;;;;4979468;28;20442;-71
2021/12/25 11:10:55;;;;;;;3.13;2.73;;;11.70;99.90;;;;;;4979231;28;20475;-70
2021/12/25 11:13:25;;;;;;;2.83;2.63;;;11.80;99.90;;;;;;4978697;28;20443;-70
2021/12/25 11:16:01;;;;;;;4.27;3.00;;;11.90;99.90;;;;;;4979636;28;20866;-71
2021/12/25 11:18:27;;;;;;;3.23;3.10;;;12.00;99.90;;;;;;4979032;28;20533;-70
2021/12/25 11:20:54;;;;;;;3.57;3.00;;;11.90;99.90;;;;;;4978397;28;20476;-71
2021/12/25 11:23:22;;;;;;;5.40;3.60;;;11.80;99.90;;;;;;4979523;28;20466;-70
2021/12/25 11:25:48;;;;;;;4.20;3.40;;;11.70;99.90;;;;;;4979234;28;20503;-70
2021/12/25 11:28:18;;;;;;;3.70;3.40;;;11.60;99.90;;;;;;4979648;28;20469;-70
2021/12/25 11:30:50;;;;;;;4.20;3.90;;;11.50;99.90;;;;;;4979541;28;20482;-72
2021/12/25 11:33:17;;;;;;;4.23;3.80;;;11.40;99.90;;;;;;4979727;28;20916;-70
2021/12/25 11:35:48;;;;;;;3.90;3.57;;;11.40;99.90;;;;;;4979665;28;20458;-69
2021/12/25 11:38:15;;;;;;;3.90;3.50;;;11.40;99.90;;;;;;4981267;28;20514;-74
2021/12/25 11:40:49;;;;;;;3.83;3.53;;;11.10;99.90;;;;;;4979465;28;20494;-75
2021/12/25 11:43:34;;;;;;;4.40;4.00;;;11.10;99.90;;;;;;4980710;28;20526;-74
2021/12/25 11:46:05;;;;;;;3.80;3.50;;;11.10;99.90;;;;;;4980518;28;20465;-75
2021/12/25 11:48:32;;;;;;;4.40;4.03;;;11.10;99.90;;;;;;4978879;28;20446;-72
2021/12/25 11:50:59;;;;;;;4.23;3.90;;;11.20;99.90;;;;;;4978920;28;20478;-74
2021/12/25 11:53:45;;;;;;;4.13;3.43;;;11.20;99.90;;;;;;4979068;28;20460;-74
2021/12/25 11:56:25;;;;;;;4.63;4.17;;;11.30;99.90;;;;;;4979805;28;20497;-76
2021/12/25 11:58:55;;;;;;;4.23;3.80;;;11.40;99.90;;;;;;4980411;28;20445;-74
2021/12/25 12:01:25;;;;;;;4.83;4.40;;;11.50;99.90;;;;;;4980001;28;20483;-75
2021/12/25 12:03:56;;;;;;;5.10;4.70;;;11.40;99.90;;;;;;4979614;28;20440;-74
2021/12/25 12:06:56;;;;;;;5.07;4.60;;;11.40;99.90;;;;;;4979409;28;20441;-75
2021/12/25 12:09:25;;;;;;;6.10;5.50;;;11.30;99.90;;;;;;4972702;28;20808;-75
2021/12/25 12:12:11;;;;;;;5.70;5.20;;;11.40;99.90;;;;;;4979310;28;20481;-75
2021/12/25 12:14:39;;;;;;;5.57;5.13;;;11.40;99.90;;;;;;4980686;28;20446;-74
2021/12/25 12:17:08;;;;;;;5.43;5.00;;;11.40;99.90;;;;;;4988615;28;20443;-74
2021/12/25 12:19:44;;;;;;;5.70;5.20;;;11.30;99.90;;;;;;4979486;28;20490;-75
2021/12/25 12:23:17;;;;;;;5.67;5.17;;;11.20;99.90;;;;;;4978926;28;21078;-74
2021/12/25 12:25:58;;;;;;;5.13;4.73;;;11.20;99.90;;;;;;4977435;28;21002;-73
2021/12/25 12:28:46;;;;;;;5.80;5.30;;;11.10;99.90;;;;;;4978553;28;20447;-74
2021/12/25 12:31:37;;;;;;;5.37;4.97;;;11.10;99.90;;;;;;4978122;28;20485;-73
2021/12/25 12:34:35;;;;;;;5.33;4.90;;;11.10;99.90;;;;;;4978631;28;20445;-74
2021/12/25 12:37:27;;;;;;;5.67;5.17;;;11.10;99.90;;;;;;4978713;28;20442;-74
2021/12/25 12:40:21;;;;;;;5.40;4.90;;;11.10;99.90;;;;;;4979122;28;20463;-74
2021/12/25 12:42:52;;;;;;;5.87;5.37;;;11.10;99.90;;;;;;4978104;28;20455;-73
2021/12/25 12:45:22;;;;;;;5.60;4.97;;;11.00;99.90;;;;;;4977841;28;20470;-73
2021/12/25 12:48:14;;;;;;;7.77;5.60;;;11.00;99.90;;;;;;4978652;28;20553;-73
2021/12/25 12:50:45;;;;;;;7.03;6.00;;;11.00;99.90;;;;;;4977970;28;20950;-73
2021/12/25 12:53:12;;;;;;;6.30;5.70;;;11.00;99.90;;;;;;4978309;28;20522;-73
2021/12/25 12:55:40;;;;;;;6.40;5.90;;;11.00;99.90;;;;;;4978077;28;20443;-73
2021/12/25 12:58:16;;;;;;;5.73;5.33;;;10.90;99.90;;;;;;4978301;28;20434;-73
2021/12/25 13:00:45;;;;;;;6.73;6.17;;;10.90;99.90;;;;;;4978293;28;20490;-73
2021/12/25 13:03:17;;;;;;;6.33;5.67;;;10.90;99.90;;;;;;4980510;28;20461;-72
2021/12/25 13:05:53;;;;;;;7.50;6.37;;;10.80;99.90;;;;;;4982474;28;20806;-72
2021/12/25 13:08:23;;;;;;;6.67;6.03;;;10.80;99.90;;;;;;4978779;28;20488;-73
2021/12/25 13:10:52;;;;;;;6.20;5.70;;;10.80;99.90;;;;;;4977051;28;20476;-73
2021/12/25 13:13:23;;;;;;;8.07;6.27;;;10.90;99.90;;;;;;4977462;28;20826;-73
2021/12/25 13:15:55;;;;;;;7.00;6.40;;;10.80;99.90;;;;;;4977468;28;20453;-73
2021/12/25 13:18:28;;;;;;;6.77;6.27;;;10.80;99.90;;;;;;4978684;28;20439;-73
2021/12/25 13:20:57;;;;;;;7.67;7.03;;;10.80;99.90;;;;;;4986487;28;20487;-73
2021/12/25 13:23:26;;;;;;;6.40;5.90;;;10.80;99.90;;;;;;4989755;28;20449;-72
2021/12/25 13:25:56;;;;;;;7.43;6.80;;;10.80;99.90;;;;;;4987854;28;20442;-73
2021/12/25 13:28:24;;;;;;;7.87;7.17;;;10.90;99.90;;;;;;4982331;28;20542;-73
2021/12/25 13:30:54;;;;;;;6.87;6.17;;;10.90;99.90;;;;;;4977782;28;20485;-69
2021/12/25 13:33:24;;;;;;;7.40;6.80;;;10.90;99.90;;;;;;4978436;28;20445;-69
2021/12/25 13:36:01;;;;;;;6.50;5.90;;;11.00;99.90;;;;;;4978034;28;20489;-70
2021/12/25 13:38:29;;;;;;;9.90;7.30;;;11.00;99.90;;;;;;4981531;28;20446;-69
2021/12/25 13:40:55;;;;;;;7.43;6.70;;;11.00;99.90;;;;;;4981901;28;20513;-70
2021/12/25 13:43:23;;;;;;;7.17;6.50;;;11.10;99.90;;;;;;4981671;28;20444;-69
2021/12/25 13:45:56;;;;;;;8.13;7.40;;;11.10;99.90;;;;;;4984841;28;20511;-69
2021/12/25 13:48:23;;;;;;;11.03;9.07;;;11.00;99.90;;;;;;4983867;28;20437;-69
2021/12/25 13:50:52;;;;;;;10.07;9.17;;;10.90;99.90;;;;;;4981487;28;20464;-69
2021/12/25 13:53:20;;;;;;;10.47;9.37;;;10.70;99.90;;;;;;4980828;28;20883;-69
2021/12/25 13:55:48;;;;;;;10.03;9.03;;;10.50;99.90;;;;;;4980902;28;20457;-70
2021/12/25 13:58:17;;;;;;;8.30;7.60;;;10.40;99.90;;;;;;4980858;28;20460;-70
2021/12/25 14:00:48;;;;;;;7.90;7.10;;;10.30;99.90;;;;;;4979648;28;20618;-70
2021/12/25 14:03:18;;;;;;;8.83;8.07;;;10.20;99.90;;;;;;4980501;28;20446;-70
2021/12/25 14:05:47;;;;;;;8.50;7.80;;;10.10;99.90;;;;;;4978973;28;20502;-70
2021/12/25 14:08:23;;;;;;;9.00;8.20;;;10.00;99.90;;;;;;4978960;28;20465;-70
2021/12/25 14:10:50;;;;;;;9.23;8.00;;;10.00;99.90;;;;;;4979200;28;20880;-70
2021/12/25 14:13:20;;;;;;;9.27;8.37;;;9.70;99.90;;;;;;4979580;28;20485;-70
2021/12/25 14:15:51;;;;;;;8.37;7.67;;;9.60;99.90;;;;;;4979636;28;20942;-69
2021/12/25 14:18:20;;;;;;;8.33;7.53;;;9.60;99.90;;;;;;4980105;28;20983;-69
2021/12/25 14:20:47;;;;;;;8.17;7.43;;;9.50;99.90;;;;;;4980318;28;20489;-70
2021/12/25 14:23:17;;;;;;;8.17;7.53;;;9.40;99.90;;;;;;4979486;28;20455;-70
2021/12/25 14:25:53;;;;;;;8.50;7.80;;;9.30;99.90;;;;;;4979358;28;20439;-69
2021/12/25 14:28:23;;;;;;;9.47;8.57;;;9.10;99.90;;;;;;4978737;28;20940;-71
2021/12/25 14:30:59;;;;;;;10.03;9.13;;;9.00;99.90;;;;;;4978937;28;20491;-70
2021/12/25 14:33:27;;;;;;;9.20;8.50;;;8.90;99.90;;;;;;4978276;28;20449;-70
2021/12/25 14:35:53;;;;;;;9.03;8.20;;;8.80;99.90;;;;;;4979208;28;20463;-71
2021/12/25 14:38:21;;;;;;;9.40;8.53;;;8.70;99.90;;;;;;4979294;28;20553;-69
2021/12/25 14:40:50;;;;;;;9.97;9.07;;;8.70;99.90;;;;;;4979127;28;20851;-70
2021/12/25 14:43:20;;;;;;;9.83;8.77;;;8.60;99.90;;;;;;4979004;28;20435;-70
2021/12/25 14:45:49;;;;;;;10.73;9.73;;;8.60;99.90;;;;;;4978904;28;20469;-70
2021/12/25 14:48:26;;;;;;;11.00;10.00;;;8.50;99.90;;;;;;4978211;28;20529;-70
2021/12/25 14:50:55;;;;;;;11.97;10.50;;;8.50;99.90;;;;;;4978807;28;20998;-70
2021/12/25 14:53:23;;;;;;;10.67;9.63;;;8.50;99.90;;;;;;4978645;28;20456;-69
2021/12/25 14:55:53;;;;;;;11.77;10.50;;;8.40;99.90;;;;;;4978585;28;20439;-70
2021/12/25 14:58:23;;;;;;;12.60;11.40;;;8.30;99.90;;;;;;4978530;28;20471;-69
2021/12/25 15:01:01;;;;;;;12.53;11.33;;;8.20;99.90;;;;;;4978720;28;20482;-69
2021/12/25 15:03:28;;;;;;;12.93;11.37;;;8.10;99.90;;;;;;4978563;28;20435;-68
2021/12/25 15:05:57;;;;;;;13.80;12.40;;;8.00;99.90;;;;;;4979131;28;20486;-69
2021/12/25 15:08:28;;;;;;;13.83;12.40;;;8.00;99.90;;;;;;4978884;28;20443;-68
2021/12/25 15:11:05;;;;;;;13.33;11.60;;;7.90;99.90;;;;;;4978554;28;20478;-69
2021/12/25 15:13:32;;;;;;;16.97;14.50;;;7.90;99.90;;;;;;4979153;28;20447;-69
2021/12/25 15:16:00;;;;;;;20.73;17.17;;;7.80;99.90;;;;;;4979678;28;20463;-69
2021/12/25 15:18:30;;;;;;;19.50;16.30;;;7.70;99.90;;;;;;4986436;28;20439;-70
2021/12/25 15:21:10;;;;;;;19.90;14.63;;;7.80;99.90;;;;;;4978913;28;20831;-70
2021/12/25 15:23:38;;;;;;;15.70;13.60;;;7.70;99.90;;;;;;4978793;28;20800;-69
2021/12/25 15:26:09;;;;;;;16.20;14.33;;;7.60;99.90;;;;;;4978584;28;20439;-69
2021/12/25 15:28:37;;;;;;;17.30;14.40;;;7.50;99.90;;;;;;4978957;28;20586;-70
2021/12/25 15:31:21;;;;;;;14.80;13.40;;;7.40;99.90;;;;;;4977997;28;20999;-69
2021/12/25 15:33:50;;;;;;;14.40;12.97;;;7.40;99.90;;;;;;4978426;28;20443;-68
2021/12/25 15:36:18;;;;;;;12.70;11.50;;;7.40;99.90;;;;;;4978590;28;20455;-69
2021/12/25 15:38:45;;;;;;;10.87;9.83;;;7.50;99.90;;;;;;4978875;28;20534;-69
2021/12/25 15:41:14;;;;;;;10.67;9.60;;;7.50;99.90;;;;;;4978909;28;20487;-69
2021/12/25 15:43:41;;;;;;;10.87;9.77;;;7.40;99.90;;;;;;4978594;28;20456;-68
2021/12/25 15:46:08;;;;;;;11.10;9.93;;;7.40;99.90;;;;;;4978599;28;20883;-69
2021/12/25 15:48:36;;;;;;;10.27;9.37;;;7.30;99.90;;;;;;4978435;28;20566;-69
2021/12/25 15:51:04;;;;;;;9.83;8.90;;;7.30;99.90;;;;;;4978337;28;20490;-69
2021/12/25 15:53:31;;;;;;;10.47;9.57;;;7.30;99.90;;;;;;4977742;28;20961;-69
2021/12/25 15:55:59;;;;;;;11.10;10.20;;;7.20;99.90;;;;;;4978456;28;20475;-69
2021/12/25 15:58:28;;;;;;;10.73;9.83;;;7.10;99.90;;;;;;4980721;28;21009;-68
2021/12/25 16:00:55;;;;;;;11.50;10.50;;;7.00;99.90;;;;;;4978241;28;20483;-69
2021/12/25 16:03:22;;;;;;;10.50;9.50;;;6.90;99.90;;;;;;4977839;28;20439;-69
2021/12/25 16:05:50;;;;;;;11.03;10.03;;;6.80;99.90;;;;;;4977494;28;20454;-69
2021/12/25 16:08:18;;;;;;;16.03;9.87;;;6.70;99.90;;;;;;4977863;28;20446;-68
2021/12/25 16:10:48;;;;;;;10.60;9.57;;;6.70;99.90;;;;;;4978031;28;20978;-68
2021/12/25 16:13:19;;;;;;;10.17;9.17;;;6.60;99.90;;;;;;4978241;28;20870;-69
2021/12/25 16:15:48;;;;;;;11.20;10.00;;;6.50;99.90;;;;;;4977874;28;20440;-69
2021/12/25 16:18:15;;;;;;;11.67;10.47;;;6.50;99.90;;;;;;4977491;28;20962;-69
2021/12/25 16:20:42;;;;;;;12.80;11.47;;;6.40;99.90;;;;;;4976724;28;20494;-68
2021/12/25 16:23:09;;;;;;;10.70;9.70;;;6.30;99.90;;;;;;4977465;28;20466;-69
2021/12/25 16:25:36;;;;;;;10.90;9.90;;;6.20;99.90;;;;;;4977910;28;20466;-69
2021/12/25 16:28:03;;;;;;;12.90;11.23;;;6.10;99.90;;;;;;4977782;28;20458;-70
2021/12/25 16:30:34;;;;;;;10.67;9.60;;;6.10;99.90;;;;;;4977713;28;20965;-69
2021/12/25 16:33:04;;;;;;;12.07;10.97;;;6.00;99.90;;;;;;4978102;28;20445;-69
2021/12/25 16:35:31;;;;;;;11.70;10.60;;;6.00;99.90;;;;;;4978350;28;20455;-70
2021/12/25 16:37:59;;;;;;;11.70;10.60;;;6.00;99.90;;;;;;4977437;28;20941;-69
2021/12/25 16:40:25;;;;;;;10.60;9.60;;;6.10;99.90;;;;;;4977540;28;20534;-70
2021/12/25 16:42:52;;;;;;;11.20;10.20;;;6.10;99.90;;;;;;4977752;28;20558;-70
2021/12/25 16:45:19;;;;;;;11.80;10.70;;;6.00;99.90;;;;;;4977697;28;20455;-70
2021/12/25 16:47:46;;;;;;;11.17;10.07;;;6.00;99.90;;;;;;4978806;28;20458;-69
2021/12/25 16:50:14;;;;;;;12.63;11.40;;;6.00;99.90;;;;;;4985329;28;20471;-69
2021/12/25 16:52:41;;;;;;;12.50;11.20;;;6.10;99.90;;;;;;4977299;28;20467;-70
2021/12/25 16:55:08;;;;;;;12.20;10.93;;;6.10;99.90;;;;;;4978004;28;20458;-69
2021/12/25 16:57:36;;;;;;;11.60;10.50;;;6.10;99.90;;;;;;4977523;28;20466;-69
2021/12/25 17:00:06;;;;;;;15.50;13.87;;;6.00;99.90;;;;;;4977114;28;20494;-67
2021/12/25 17:02:33;;;;;;;12.47;11.17;;;6.10;99.90;;;;;;4976751;28;20487;-68
2021/12/25 17:05:00;;;;;;;11.33;10.33;;;6.00;99.90;;;;;;4977142;28;20446;-69
2021/12/25 17:07:28;;;;;;;12.00;10.80;;;6.00;99.90;;;;;;4984918;28;20462;-68
2021/12/25 17:09:55;;;;;;;13.10;10.90;;;6.10;99.90;;;;;;4990305;28;20461;-69
2021/12/25 17:12:23;;;;;;;13.27;12.07;;;6.10;99.90;;;;;;4990033;28;20475;-69
2021/12/25 17:14:52;;;;;;;13.40;12.00;;;6.00;99.90;;;;;;4989924;28;20466;-69
2021/12/25 17:17:20;;;;;;;12.90;11.70;;;6.00;99.90;;;;;;4982735;28;20461;-70
2021/12/25 17:19:46;;;;;;;13.90;12.60;;;6.10;99.90;;;;;;4981067;28;20455;-69
2021/12/25 17:22:13;;;;;;;12.40;11.30;;;6.00;99.90;;;;;;4982181;28;20483;-70
2021/12/25 17:24:41;;;;;;;13.07;11.67;;;6.00;99.90;;;;;;4978534;28;20462;-70
2021/12/25 17:27:08;;;;;;;12.67;11.40;;;6.00;99.90;;;;;;4976920;28;20452;-70
2021/12/25 17:29:36;;;;;;;13.80;12.50;;;6.00;99.90;;;;;;4977430;28;20462;-70
2021/12/25 17:32:04;;;;;;;15.57;13.77;;;6.00;99.90;;;;;;4977300;28;20475;-70
2021/12/25 17:34:31;;;;;;;13.80;12.50;;;5.90;99.90;;;;;;4977280;28;20969;-70
2021/12/25 17:36:58;;;;;;;12.33;11.20;;;5.90;99.90;;;;;;4976962;28;20534;-70
2021/12/25 17:39:24;;;;;;;13.10;11.80;;;5.90;99.90;;;;;;4977132;28;20455;-70
2021/12/25 17:41:58;;;;;;;12.20;11.00;;;5.90;99.90;;;;;;4976761;28;20482;-70
2021/12/25 17:44:25;;;;;;;13.20;11.93;;;5.90;99.90;;;;;;4977077;28;20882;-70
2021/12/25 17:46:53;;;;;;;13.00;11.70;;;6.00;99.90;;;;;;4976763;28;20463;-69
2021/12/25 17:49:22;;;;;;;12.60;11.40;;;6.00;99.90;;;;;;4976453;28;20459;-69
2021/12/25 17:51:49;;;;;;;13.27;11.87;;;6.00;99.90;;;;;;4976768;28;20475;-69
2021/12/25 17:54:15;;;;;;;12.83;11.53;;;5.90;99.90;;;;;;4976675;28;20455;-69
2021/12/25 17:56:42;;;;;;;14.43;12.77;;;5.80;99.90;;;;;;4976540;28;20470;-70
2021/12/25 17:59:11;;;;;;;12.80;11.60;;;5.80;99.90;;;;;;4975714;28;20497;-70